<?xml version="1.0" encoding="UTF-8" standalone="no" ?>
<gpx xmlns="http://www.topografix.com/GPX/1/1" xmlns:xsi="http://www.w3.org/2001/XMLSchema-instance" xsi:schemaLocation="http://www.topografix.com/GPX/1/1 http://www.topografix.com/GPX/1/1/gpx.xsd" version="1.1" creator="VisuGPX - https://www.visugpx.com">
  <metadata>
    <name>Domératoise 2016</name>
    <desc><![CDATA[Circuit Vélo Tout Terrain 23 kilomètres.]]></desc>
  </metadata>
  <trk>
    <name><![CDATA[23.00_Domeratoise 2016]]></name>
    <trkseg>
      <trkpt lat="46.36587" lon="2.57994">
        <ele>222</ele>
        <time>2016-10-03T19:04:03Z</time>
      </trkpt>
      <trkpt lat="46.36585" lon="2.57905">
        <ele>224</ele>
        <time>2016-10-03T19:06:03Z</time>
      </trkpt>
      <trkpt lat="46.36639" lon="2.57826">
        <ele>226</ele>
        <time>2016-10-03T19:08:03Z</time>
      </trkpt>
      <trkpt lat="46.36592" lon="2.57651">
        <ele>226</ele>
        <time>2016-10-03T19:10:03Z</time>
      </trkpt>
      <trkpt lat="46.36743" lon="2.57494">
        <ele>226</ele>
        <time>2016-10-03T19:12:03Z</time>
      </trkpt>
      <trkpt lat="46.36651" lon="2.57258">
        <ele>227</ele>
        <time>2016-10-03T19:14:03Z</time>
      </trkpt>
      <trkpt lat="46.36555" lon="2.57297">
        <ele>227</ele>
        <time>2016-10-03T19:16:03Z</time>
      </trkpt>
      <trkpt lat="46.36481" lon="2.57308">
        <ele>227</ele>
        <time>2016-10-03T19:18:03Z</time>
      </trkpt>
      <trkpt lat="46.36417" lon="2.57276">
        <ele>228</ele>
        <time>2016-10-03T19:20:03Z</time>
      </trkpt>
      <trkpt lat="46.36353" lon="2.57268">
        <ele>229</ele>
        <time>2016-10-03T19:22:03Z</time>
      </trkpt>
      <trkpt lat="46.36325" lon="2.57254">
        <ele>229</ele>
        <time>2016-10-03T19:24:03Z</time>
      </trkpt>
      <trkpt lat="46.363" lon="2.57223">
        <ele>229</ele>
        <time>2016-10-03T19:26:03Z</time>
      </trkpt>
      <trkpt lat="46.36329" lon="2.57098">
        <ele>229</ele>
        <time>2016-10-03T19:28:03Z</time>
      </trkpt>
      <trkpt lat="46.3622" lon="2.57104">
        <ele>229</ele>
        <time>2016-10-03T19:30:03Z</time>
      </trkpt>
      <trkpt lat="46.36227" lon="2.57052">
        <ele>230</ele>
        <time>2016-10-03T19:32:03Z</time>
      </trkpt>
      <trkpt lat="46.3623" lon="2.56968">
        <ele>232</ele>
        <time>2016-10-03T19:34:03Z</time>
      </trkpt>
      <trkpt lat="46.36215" lon="2.56866">
        <ele>231</ele>
        <time>2016-10-03T19:36:03Z</time>
      </trkpt>
      <trkpt lat="46.36208" lon="2.5678">
        <ele>231</ele>
        <time>2016-10-03T19:38:03Z</time>
      </trkpt>
      <trkpt lat="46.36205" lon="2.56657">
        <ele>234</ele>
        <time>2016-10-03T19:40:03Z</time>
      </trkpt>
      <trkpt lat="46.36209" lon="2.56403">
        <ele>235</ele>
        <time>2016-10-03T19:42:03Z</time>
      </trkpt>
      <trkpt lat="46.36135" lon="2.56335">
        <ele>235</ele>
        <time>2016-10-03T19:44:03Z</time>
      </trkpt>
      <trkpt lat="46.36056" lon="2.56251">
        <ele>236</ele>
        <time>2016-10-03T19:46:03Z</time>
      </trkpt>
      <trkpt lat="46.35987" lon="2.56185">
        <ele>238</ele>
        <time>2016-10-03T19:48:03Z</time>
      </trkpt>
      <trkpt lat="46.35909" lon="2.56069">
        <ele>242</ele>
        <time>2016-10-03T19:50:03Z</time>
      </trkpt>
      <trkpt lat="46.3597" lon="2.55947">
        <ele>238</ele>
        <time>2016-10-03T19:52:03Z</time>
      </trkpt>
      <trkpt lat="46.36023" lon="2.55813">
        <ele>232</ele>
        <time>2016-10-03T19:54:03Z</time>
      </trkpt>
      <trkpt lat="46.36046" lon="2.55692">
        <ele>229</ele>
        <time>2016-10-03T19:56:03Z</time>
      </trkpt>
      <trkpt lat="46.36072" lon="2.55595">
        <ele>226</ele>
        <time>2016-10-03T19:58:03Z</time>
      </trkpt>
      <trkpt lat="46.36092" lon="2.55484">
        <ele>227</ele>
        <time>2016-10-03T20:00:03Z</time>
      </trkpt>
      <trkpt lat="46.36102" lon="2.55393">
        <ele>228</ele>
        <time>2016-10-03T20:02:03Z</time>
      </trkpt>
      <trkpt lat="46.36123" lon="2.55297">
        <ele>227</ele>
        <time>2016-10-03T20:04:03Z</time>
      </trkpt>
      <trkpt lat="46.36145" lon="2.55213">
        <ele>225</ele>
        <time>2016-10-03T20:06:03Z</time>
      </trkpt>
      <trkpt lat="46.36198" lon="2.55086">
        <ele>223</ele>
        <time>2016-10-03T20:08:03Z</time>
      </trkpt>
      <trkpt lat="46.36224" lon="2.55036">
        <ele>222</ele>
        <time>2016-10-03T20:10:03Z</time>
      </trkpt>
      <trkpt lat="46.36255" lon="2.54944">
        <ele>222</ele>
        <time>2016-10-03T20:12:03Z</time>
      </trkpt>
      <trkpt lat="46.36281" lon="2.54882">
        <ele>222</ele>
        <time>2016-10-03T20:14:03Z</time>
      </trkpt>
      <trkpt lat="46.36351" lon="2.54758">
        <ele>223</ele>
        <time>2016-10-03T20:16:03Z</time>
      </trkpt>
      <trkpt lat="46.36394" lon="2.54655">
        <ele>223</ele>
        <time>2016-10-03T20:18:03Z</time>
      </trkpt>
      <trkpt lat="46.36442" lon="2.54595">
        <ele>223</ele>
        <time>2016-10-03T20:20:03Z</time>
      </trkpt>
      <trkpt lat="46.36472" lon="2.54548">
        <ele>223</ele>
        <time>2016-10-03T20:22:03Z</time>
      </trkpt>
      <trkpt lat="46.36532" lon="2.54414">
        <ele>225</ele>
        <time>2016-10-03T20:24:03Z</time>
      </trkpt>
      <trkpt lat="46.36548" lon="2.54366">
        <ele>226</ele>
        <time>2016-10-03T20:26:03Z</time>
      </trkpt>
      <trkpt lat="46.36564" lon="2.54382">
        <ele>226</ele>
        <time>2016-10-03T20:28:03Z</time>
      </trkpt>
      <trkpt lat="46.36589" lon="2.543">
        <ele>228</ele>
        <time>2016-10-03T20:30:03Z</time>
      </trkpt>
      <trkpt lat="46.36629" lon="2.54246">
        <ele>228</ele>
        <time>2016-10-03T20:32:03Z</time>
      </trkpt>
      <trkpt lat="46.36656" lon="2.54216">
        <ele>228</ele>
        <time>2016-10-03T20:34:03Z</time>
      </trkpt>
      <trkpt lat="46.367" lon="2.54123">
        <ele>230</ele>
        <time>2016-10-03T20:36:03Z</time>
      </trkpt>
      <trkpt lat="46.3677" lon="2.54001">
        <ele>233</ele>
        <time>2016-10-03T20:38:03Z</time>
      </trkpt>
      <trkpt lat="46.36807" lon="2.53941">
        <ele>233</ele>
        <time>2016-10-03T20:40:03Z</time>
      </trkpt>
      <trkpt lat="46.36854" lon="2.53887">
        <ele>235</ele>
        <time>2016-10-03T20:42:03Z</time>
      </trkpt>
      <trkpt lat="46.36912" lon="2.53819">
        <ele>232</ele>
        <time>2016-10-03T20:44:03Z</time>
      </trkpt>
      <trkpt lat="46.37016" lon="2.53758">
        <ele>222</ele>
        <time>2016-10-03T20:46:03Z</time>
      </trkpt>
      <trkpt lat="46.37086" lon="2.53665">
        <ele>217</ele>
        <time>2016-10-03T20:48:03Z</time>
      </trkpt>
      <trkpt lat="46.37171" lon="2.5356">
        <ele>216</ele>
        <time>2016-10-03T20:50:03Z</time>
      </trkpt>
      <trkpt lat="46.37248" lon="2.53469">
        <ele>216</ele>
        <time>2016-10-03T20:52:03Z</time>
      </trkpt>
      <trkpt lat="46.37305" lon="2.53384">
        <ele>217</ele>
        <time>2016-10-03T20:54:03Z</time>
      </trkpt>
      <trkpt lat="46.37329" lon="2.53345">
        <ele>217</ele>
        <time>2016-10-03T20:56:03Z</time>
      </trkpt>
      <trkpt lat="46.37368" lon="2.53287">
        <ele>219</ele>
        <time>2016-10-03T20:58:03Z</time>
      </trkpt>
      <trkpt lat="46.37385" lon="2.53248">
        <ele>222</ele>
        <time>2016-10-03T21:00:03Z</time>
      </trkpt>
      <trkpt lat="46.37432" lon="2.53028">
        <ele>225</ele>
        <time>2016-10-03T21:02:03Z</time>
      </trkpt>
      <trkpt lat="46.3744" lon="2.52948">
        <ele>227</ele>
        <time>2016-10-03T21:04:03Z</time>
      </trkpt>
      <trkpt lat="46.37498" lon="2.52769">
        <ele>230</ele>
        <time>2016-10-03T21:06:03Z</time>
      </trkpt>
      <trkpt lat="46.37554" lon="2.52713">
        <ele>229</ele>
        <time>2016-10-03T21:08:03Z</time>
      </trkpt>
      <trkpt lat="46.37609" lon="2.52667">
        <ele>227</ele>
        <time>2016-10-03T21:10:03Z</time>
      </trkpt>
      <trkpt lat="46.37685" lon="2.52611">
        <ele>224</ele>
        <time>2016-10-03T21:12:03Z</time>
      </trkpt>
      <trkpt lat="46.37784" lon="2.5255">
        <ele>222</ele>
        <time>2016-10-03T21:14:03Z</time>
      </trkpt>
      <trkpt lat="46.37826" lon="2.52513">
        <ele>221</ele>
        <time>2016-10-03T21:16:03Z</time>
      </trkpt>
      <trkpt lat="46.37882" lon="2.52441">
        <ele>225</ele>
        <time>2016-10-03T21:18:03Z</time>
      </trkpt>
      <trkpt lat="46.37941" lon="2.52379">
        <ele>227</ele>
        <time>2016-10-03T21:20:03Z</time>
      </trkpt>
      <trkpt lat="46.38023" lon="2.52327">
        <ele>226</ele>
        <time>2016-10-03T21:22:03Z</time>
      </trkpt>
      <trkpt lat="46.38063" lon="2.5232">
        <ele>225</ele>
        <time>2016-10-03T21:24:03Z</time>
      </trkpt>
      <trkpt lat="46.38185" lon="2.52309">
        <ele>224</ele>
        <time>2016-10-03T21:26:03Z</time>
      </trkpt>
      <trkpt lat="46.3827" lon="2.5225">
        <ele>220</ele>
        <time>2016-10-03T21:28:03Z</time>
      </trkpt>
      <trkpt lat="46.38354" lon="2.52184">
        <ele>215</ele>
        <time>2016-10-03T21:30:03Z</time>
      </trkpt>
      <trkpt lat="46.38393" lon="2.52159">
        <ele>214</ele>
        <time>2016-10-03T21:32:03Z</time>
      </trkpt>
      <trkpt lat="46.38415" lon="2.5215">
        <ele>213</ele>
        <time>2016-10-03T21:34:03Z</time>
      </trkpt>
      <trkpt lat="46.38433" lon="2.52134">
        <ele>212</ele>
        <time>2016-10-03T21:36:03Z</time>
      </trkpt>
      <trkpt lat="46.38525" lon="2.52177">
        <ele>211</ele>
        <time>2016-10-03T21:38:03Z</time>
      </trkpt>
      <trkpt lat="46.38612" lon="2.52231">
        <ele>213</ele>
        <time>2016-10-03T21:40:03Z</time>
      </trkpt>
      <trkpt lat="46.38672" lon="2.52261">
        <ele>215</ele>
        <time>2016-10-03T21:42:03Z</time>
      </trkpt>
      <trkpt lat="46.3873" lon="2.52296">
        <ele>213</ele>
        <time>2016-10-03T21:44:03Z</time>
      </trkpt>
      <trkpt lat="46.38785" lon="2.5226">
        <ele>214</ele>
        <time>2016-10-03T21:46:03Z</time>
      </trkpt>
      <trkpt lat="46.38828" lon="2.52244">
        <ele>213</ele>
        <time>2016-10-03T21:48:03Z</time>
      </trkpt>
      <trkpt lat="46.38902" lon="2.52183">
        <ele>216</ele>
        <time>2016-10-03T21:50:03Z</time>
      </trkpt>
      <trkpt lat="46.39036" lon="2.52246">
        <ele>224</ele>
        <time>2016-10-03T21:52:03Z</time>
      </trkpt>
      <trkpt lat="46.39135" lon="2.52271">
        <ele>225</ele>
        <time>2016-10-03T21:54:03Z</time>
      </trkpt>
      <trkpt lat="46.39209" lon="2.52321">
        <ele>222</ele>
        <time>2016-10-03T21:56:03Z</time>
      </trkpt>
      <trkpt lat="46.39314" lon="2.52316">
        <ele>219</ele>
        <time>2016-10-03T21:58:03Z</time>
      </trkpt>
      <trkpt lat="46.39438" lon="2.5232">
        <ele>218</ele>
        <time>2016-10-03T22:00:03Z</time>
      </trkpt>
      <trkpt lat="46.39508" lon="2.5233">
        <ele>220</ele>
        <time>2016-10-03T22:02:03Z</time>
      </trkpt>
      <trkpt lat="46.39553" lon="2.5232">
        <ele>223</ele>
        <time>2016-10-03T22:04:03Z</time>
      </trkpt>
      <trkpt lat="46.39601" lon="2.52293">
        <ele>225</ele>
        <time>2016-10-03T22:06:03Z</time>
      </trkpt>
      <trkpt lat="46.39666" lon="2.52247">
        <ele>224</ele>
        <time>2016-10-03T22:08:03Z</time>
      </trkpt>
      <trkpt lat="46.39611" lon="2.52184">
        <ele>227</ele>
        <time>2016-10-03T22:10:03Z</time>
      </trkpt>
      <trkpt lat="46.39563" lon="2.52052">
        <ele>230</ele>
        <time>2016-10-03T22:12:03Z</time>
      </trkpt>
      <trkpt lat="46.39513" lon="2.51827">
        <ele>235</ele>
        <time>2016-10-03T22:14:03Z</time>
      </trkpt>
      <trkpt lat="46.39475" lon="2.517">
        <ele>237</ele>
        <time>2016-10-03T22:16:03Z</time>
      </trkpt>
      <trkpt lat="46.39426" lon="2.51565">
        <ele>244</ele>
        <time>2016-10-03T22:18:03Z</time>
      </trkpt>
      <trkpt lat="46.39377" lon="2.51453">
        <ele>245</ele>
        <time>2016-10-03T22:20:03Z</time>
      </trkpt>
      <trkpt lat="46.39339" lon="2.51337">
        <ele>247</ele>
        <time>2016-10-03T22:22:03Z</time>
      </trkpt>
      <trkpt lat="46.3929" lon="2.51231">
        <ele>248</ele>
        <time>2016-10-03T22:24:03Z</time>
      </trkpt>
      <trkpt lat="46.39131" lon="2.50956">
        <ele>253</ele>
        <time>2016-10-03T22:26:03Z</time>
      </trkpt>
      <trkpt lat="46.39065" lon="2.5093">
        <ele>255</ele>
        <time>2016-10-03T22:28:03Z</time>
      </trkpt>
      <trkpt lat="46.39026" lon="2.50918">
        <ele>255</ele>
        <time>2016-10-03T22:30:03Z</time>
      </trkpt>
      <trkpt lat="46.38913" lon="2.50995">
        <ele>257</ele>
        <time>2016-10-03T22:32:03Z</time>
      </trkpt>
      <trkpt lat="46.38833" lon="2.51039">
        <ele>256</ele>
        <time>2016-10-03T22:34:03Z</time>
      </trkpt>
      <trkpt lat="46.38791" lon="2.51077">
        <ele>255</ele>
        <time>2016-10-03T22:36:03Z</time>
      </trkpt>
      <trkpt lat="46.38688" lon="2.5107">
        <ele>253</ele>
        <time>2016-10-03T22:38:03Z</time>
      </trkpt>
      <trkpt lat="46.38608" lon="2.51114">
        <ele>250</ele>
        <time>2016-10-03T22:40:03Z</time>
      </trkpt>
      <trkpt lat="46.38609" lon="2.51059">
        <ele>252</ele>
        <time>2016-10-03T22:42:03Z</time>
      </trkpt>
      <trkpt lat="46.38619" lon="2.51002">
        <ele>253</ele>
        <time>2016-10-03T22:44:03Z</time>
      </trkpt>
      <trkpt lat="46.38602" lon="2.50986">
        <ele>253</ele>
        <time>2016-10-03T22:46:03Z</time>
      </trkpt>
      <trkpt lat="46.38572" lon="2.50895">
        <ele>253</ele>
        <time>2016-10-03T22:48:03Z</time>
      </trkpt>
      <trkpt lat="46.38501" lon="2.50863">
        <ele>254</ele>
        <time>2016-10-03T22:50:03Z</time>
      </trkpt>
      <trkpt lat="46.38475" lon="2.50775">
        <ele>256</ele>
        <time>2016-10-03T22:52:03Z</time>
      </trkpt>
      <trkpt lat="46.38461" lon="2.50695">
        <ele>256</ele>
        <time>2016-10-03T22:54:03Z</time>
      </trkpt>
      <trkpt lat="46.38439" lon="2.50619">
        <ele>257</ele>
        <time>2016-10-03T22:56:03Z</time>
      </trkpt>
      <trkpt lat="46.38411" lon="2.50407">
        <ele>262</ele>
        <time>2016-10-03T22:58:03Z</time>
      </trkpt>
      <trkpt lat="46.38456" lon="2.50267">
        <ele>264</ele>
        <time>2016-10-03T23:00:03Z</time>
      </trkpt>
      <trkpt lat="46.38485" lon="2.50172">
        <ele>268</ele>
        <time>2016-10-03T23:02:03Z</time>
      </trkpt>
      <trkpt lat="46.38491" lon="2.50072">
        <ele>270</ele>
        <time>2016-10-03T23:04:03Z</time>
      </trkpt>
      <trkpt lat="46.38476" lon="2.4986">
        <ele>278</ele>
        <time>2016-10-03T23:06:03Z</time>
      </trkpt>
      <trkpt lat="46.38465" lon="2.49708">
        <ele>281</ele>
        <time>2016-10-03T23:08:03Z</time>
      </trkpt>
      <trkpt lat="46.38463" lon="2.49651">
        <ele>281</ele>
        <time>2016-10-03T23:10:03Z</time>
      </trkpt>
      <trkpt lat="46.38422" lon="2.4952">
        <ele>280</ele>
        <time>2016-10-03T23:12:03Z</time>
      </trkpt>
      <trkpt lat="46.38401" lon="2.49503">
        <ele>278</ele>
        <time>2016-10-03T23:14:03Z</time>
      </trkpt>
      <trkpt lat="46.38375" lon="2.49508">
        <ele>277</ele>
        <time>2016-10-03T23:16:03Z</time>
      </trkpt>
      <trkpt lat="46.38371" lon="2.49483">
        <ele>275</ele>
        <time>2016-10-03T23:18:03Z</time>
      </trkpt>
      <trkpt lat="46.38289" lon="2.49524">
        <ele>268</ele>
        <time>2016-10-03T23:20:03Z</time>
      </trkpt>
      <trkpt lat="46.38255" lon="2.4954">
        <ele>263</ele>
        <time>2016-10-03T23:22:03Z</time>
      </trkpt>
      <trkpt lat="46.38223" lon="2.49517">
        <ele>262</ele>
        <time>2016-10-03T23:24:03Z</time>
      </trkpt>
      <trkpt lat="46.3817" lon="2.49563">
        <ele>258</ele>
        <time>2016-10-03T23:26:03Z</time>
      </trkpt>
      <trkpt lat="46.38061" lon="2.4958">
        <ele>266</ele>
        <time>2016-10-03T23:28:03Z</time>
      </trkpt>
      <trkpt lat="46.37981" lon="2.49654">
        <ele>272</ele>
        <time>2016-10-03T23:30:03Z</time>
      </trkpt>
      <trkpt lat="46.37918" lon="2.49755">
        <ele>276</ele>
        <time>2016-10-03T23:32:03Z</time>
      </trkpt>
      <trkpt lat="46.37869" lon="2.49818">
        <ele>282</ele>
        <time>2016-10-03T23:34:03Z</time>
      </trkpt>
      <trkpt lat="46.37832" lon="2.49825">
        <ele>285</ele>
        <time>2016-10-03T23:36:03Z</time>
      </trkpt>
      <trkpt lat="46.37839" lon="2.49948">
        <ele>282</ele>
        <time>2016-10-03T23:38:03Z</time>
      </trkpt>
      <trkpt lat="46.37877" lon="2.50129">
        <ele>277</ele>
        <time>2016-10-03T23:40:03Z</time>
      </trkpt>
      <trkpt lat="46.37888" lon="2.50268">
        <ele>273</ele>
        <time>2016-10-03T23:42:03Z</time>
      </trkpt>
      <trkpt lat="46.37934" lon="2.50395">
        <ele>266</ele>
        <time>2016-10-03T23:44:03Z</time>
      </trkpt>
      <trkpt lat="46.37999" lon="2.50528">
        <ele>259</ele>
        <time>2016-10-03T23:46:03Z</time>
      </trkpt>
      <trkpt lat="46.37992" lon="2.50572">
        <ele>255</ele>
        <time>2016-10-03T23:48:03Z</time>
      </trkpt>
      <trkpt lat="46.37993" lon="2.50658">
        <ele>253</ele>
        <time>2016-10-03T23:50:03Z</time>
      </trkpt>
      <trkpt lat="46.37997" lon="2.50776">
        <ele>251</ele>
        <time>2016-10-03T23:52:03Z</time>
      </trkpt>
      <trkpt lat="46.37957" lon="2.50789">
        <ele>252</ele>
        <time>2016-10-03T23:54:03Z</time>
      </trkpt>
      <trkpt lat="46.37931" lon="2.50767">
        <ele>253</ele>
        <time>2016-10-03T23:56:03Z</time>
      </trkpt>
      <trkpt lat="46.37879" lon="2.50774">
        <ele>254</ele>
        <time>2016-10-03T23:58:03Z</time>
      </trkpt>
      <trkpt lat="46.37872" lon="2.50941">
        <ele>251</ele>
        <time>2016-10-04T00:00:03Z</time>
      </trkpt>
      <trkpt lat="46.37895" lon="2.51051">
        <ele>247</ele>
        <time>2016-10-04T00:02:03Z</time>
      </trkpt>
      <trkpt lat="46.37953" lon="2.51255">
        <ele>243</ele>
        <time>2016-10-04T00:04:03Z</time>
      </trkpt>
      <trkpt lat="46.3789" lon="2.51283">
        <ele>241</ele>
        <time>2016-10-04T00:06:03Z</time>
      </trkpt>
      <trkpt lat="46.37826" lon="2.51337">
        <ele>239</ele>
        <time>2016-10-04T00:08:03Z</time>
      </trkpt>
      <trkpt lat="46.37791" lon="2.51419">
        <ele>239</ele>
        <time>2016-10-04T00:10:03Z</time>
      </trkpt>
      <trkpt lat="46.37701" lon="2.51463">
        <ele>242</ele>
        <time>2016-10-04T00:12:03Z</time>
      </trkpt>
      <trkpt lat="46.3763" lon="2.51494">
        <ele>244</ele>
        <time>2016-10-04T00:14:03Z</time>
      </trkpt>
      <trkpt lat="46.37624" lon="2.51524">
        <ele>243</ele>
        <time>2016-10-04T00:16:03Z</time>
      </trkpt>
      <trkpt lat="46.37514" lon="2.51674">
        <ele>243</ele>
        <time>2016-10-04T00:18:03Z</time>
      </trkpt>
      <trkpt lat="46.37439" lon="2.51803">
        <ele>244</ele>
        <time>2016-10-04T00:20:03Z</time>
      </trkpt>
      <trkpt lat="46.37374" lon="2.51791">
        <ele>248</ele>
        <time>2016-10-04T00:22:03Z</time>
      </trkpt>
      <trkpt lat="46.37344" lon="2.51816">
        <ele>249</ele>
        <time>2016-10-04T00:24:03Z</time>
      </trkpt>
      <trkpt lat="46.37335" lon="2.51848">
        <ele>249</ele>
        <time>2016-10-04T00:26:03Z</time>
      </trkpt>
      <trkpt lat="46.37312" lon="2.51877">
        <ele>248</ele>
        <time>2016-10-04T00:28:03Z</time>
      </trkpt>
      <trkpt lat="46.37331" lon="2.51956">
        <ele>246</ele>
        <time>2016-10-04T00:30:03Z</time>
      </trkpt>
      <trkpt lat="46.37385" lon="2.52016">
        <ele>242</ele>
        <time>2016-10-04T00:32:03Z</time>
      </trkpt>
      <trkpt lat="46.3733" lon="2.52056">
        <ele>242</ele>
        <time>2016-10-04T00:34:03Z</time>
      </trkpt>
      <trkpt lat="46.37222" lon="2.52147">
        <ele>239</ele>
        <time>2016-10-04T00:36:03Z</time>
      </trkpt>
      <trkpt lat="46.37173" lon="2.52178">
        <ele>237</ele>
        <time>2016-10-04T00:38:03Z</time>
      </trkpt>
      <trkpt lat="46.37111" lon="2.52351">
        <ele>231</ele>
        <time>2016-10-04T00:40:03Z</time>
      </trkpt>
      <trkpt lat="46.37051" lon="2.52507">
        <ele>224</ele>
        <time>2016-10-04T00:42:03Z</time>
      </trkpt>
      <trkpt lat="46.37017" lon="2.52525">
        <ele>222</ele>
        <time>2016-10-04T00:44:03Z</time>
      </trkpt>
      <trkpt lat="46.36973" lon="2.52447">
        <ele>222</ele>
        <time>2016-10-04T00:46:03Z</time>
      </trkpt>
      <trkpt lat="46.36939" lon="2.5249">
        <ele>223</ele>
        <time>2016-10-04T00:48:03Z</time>
      </trkpt>
      <trkpt lat="46.36936" lon="2.52558">
        <ele>223</ele>
        <time>2016-10-04T00:50:03Z</time>
      </trkpt>
      <trkpt lat="46.36839" lon="2.52642">
        <ele>230</ele>
        <time>2016-10-04T00:52:03Z</time>
      </trkpt>
      <trkpt lat="46.36702" lon="2.52706">
        <ele>236</ele>
        <time>2016-10-04T00:54:03Z</time>
      </trkpt>
      <trkpt lat="46.3663" lon="2.5255">
        <ele>237</ele>
        <time>2016-10-04T00:56:03Z</time>
      </trkpt>
      <trkpt lat="46.36443" lon="2.52166">
        <ele>252</ele>
        <time>2016-10-04T00:58:03Z</time>
      </trkpt>
      <trkpt lat="46.36327" lon="2.52291">
        <ele>246</ele>
        <time>2016-10-04T01:00:03Z</time>
      </trkpt>
      <trkpt lat="46.36265" lon="2.52384">
        <ele>247</ele>
        <time>2016-10-04T01:02:03Z</time>
      </trkpt>
      <trkpt lat="46.36161" lon="2.52571">
        <ele>248</ele>
        <time>2016-10-04T01:04:03Z</time>
      </trkpt>
      <trkpt lat="46.36086" lon="2.52737">
        <ele>246</ele>
        <time>2016-10-04T01:06:03Z</time>
      </trkpt>
      <trkpt lat="46.36069" lon="2.52867">
        <ele>251</ele>
        <time>2016-10-04T01:08:03Z</time>
      </trkpt>
      <trkpt lat="46.36087" lon="2.52989">
        <ele>249</ele>
        <time>2016-10-04T01:10:03Z</time>
      </trkpt>
      <trkpt lat="46.36064" lon="2.52958">
        <ele>250</ele>
        <time>2016-10-04T01:12:03Z</time>
      </trkpt>
      <trkpt lat="46.36004" lon="2.5311">
        <ele>246</ele>
        <time>2016-10-04T01:14:03Z</time>
      </trkpt>
      <trkpt lat="46.35946" lon="2.53332">
        <ele>245</ele>
        <time>2016-10-04T01:16:03Z</time>
      </trkpt>
      <trkpt lat="46.35991" lon="2.53411">
        <ele>243</ele>
        <time>2016-10-04T01:18:03Z</time>
      </trkpt>
      <trkpt lat="46.35883" lon="2.53554">
        <ele>242</ele>
        <time>2016-10-04T01:20:03Z</time>
      </trkpt>
      <trkpt lat="46.35828" lon="2.53587">
        <ele>241</ele>
        <time>2016-10-04T01:22:03Z</time>
      </trkpt>
      <trkpt lat="46.35776" lon="2.53655">
        <ele>239</ele>
        <time>2016-10-04T01:24:03Z</time>
      </trkpt>
      <trkpt lat="46.35725" lon="2.53704">
        <ele>241</ele>
        <time>2016-10-04T01:26:03Z</time>
      </trkpt>
      <trkpt lat="46.35757" lon="2.53787">
        <ele>240</ele>
        <time>2016-10-04T01:28:03Z</time>
      </trkpt>
      <trkpt lat="46.35783" lon="2.53857">
        <ele>240</ele>
        <time>2016-10-04T01:30:03Z</time>
      </trkpt>
      <trkpt lat="46.35742" lon="2.53987">
        <ele>240</ele>
        <time>2016-10-04T01:32:03Z</time>
      </trkpt>
      <trkpt lat="46.35715" lon="2.5405">
        <ele>240</ele>
        <time>2016-10-04T01:34:03Z</time>
      </trkpt>
      <trkpt lat="46.35696" lon="2.54118">
        <ele>240</ele>
        <time>2016-10-04T01:36:03Z</time>
      </trkpt>
      <trkpt lat="46.35692" lon="2.54189">
        <ele>240</ele>
        <time>2016-10-04T01:38:03Z</time>
      </trkpt>
      <trkpt lat="46.35611" lon="2.54425">
        <ele>244</ele>
        <time>2016-10-04T01:40:03Z</time>
      </trkpt>
      <trkpt lat="46.35729" lon="2.54524">
        <ele>236</ele>
        <time>2016-10-04T01:42:03Z</time>
      </trkpt>
      <trkpt lat="46.35699" lon="2.54912">
        <ele>235</ele>
        <time>2016-10-04T01:44:03Z</time>
      </trkpt>
      <trkpt lat="46.35682" lon="2.55109">
        <ele>236</ele>
        <time>2016-10-04T01:46:03Z</time>
      </trkpt>
      <trkpt lat="46.35628" lon="2.55301">
        <ele>241</ele>
        <time>2016-10-04T01:48:03Z</time>
      </trkpt>
      <trkpt lat="46.35549" lon="2.55451">
        <ele>248</ele>
        <time>2016-10-04T01:50:03Z</time>
      </trkpt>
      <trkpt lat="46.35527" lon="2.55521">
        <ele>249</ele>
        <time>2016-10-04T01:52:03Z</time>
      </trkpt>
      <trkpt lat="46.3549" lon="2.5561">
        <ele>248</ele>
        <time>2016-10-04T01:54:03Z</time>
      </trkpt>
      <trkpt lat="46.35379" lon="2.5575">
        <ele>238</ele>
        <time>2016-10-04T01:56:03Z</time>
      </trkpt>
      <trkpt lat="46.35406" lon="2.5579">
        <ele>236</ele>
        <time>2016-10-04T01:58:03Z</time>
      </trkpt>
      <trkpt lat="46.35486" lon="2.55777">
        <ele>242</ele>
        <time>2016-10-04T02:00:03Z</time>
      </trkpt>
      <trkpt lat="46.35717" lon="2.55911">
        <ele>247</ele>
        <time>2016-10-04T02:02:03Z</time>
      </trkpt>
      <trkpt lat="46.35708" lon="2.56013">
        <ele>245</ele>
        <time>2016-10-04T02:04:03Z</time>
      </trkpt>
      <trkpt lat="46.35816" lon="2.55995">
        <ele>247</ele>
        <time>2016-10-04T02:06:03Z</time>
      </trkpt>
      <trkpt lat="46.35888" lon="2.56053">
        <ele>243</ele>
        <time>2016-10-04T02:08:03Z</time>
      </trkpt>
      <trkpt lat="46.35964" lon="2.56154">
        <ele>239</ele>
        <time>2016-10-04T02:10:03Z</time>
      </trkpt>
      <trkpt lat="46.3602" lon="2.56242">
        <ele>237</ele>
        <time>2016-10-04T02:12:03Z</time>
      </trkpt>
      <trkpt lat="46.36141" lon="2.56357">
        <ele>235</ele>
        <time>2016-10-04T02:14:03Z</time>
      </trkpt>
      <trkpt lat="46.36081" lon="2.56528">
        <ele>234</ele>
        <time>2016-10-04T02:16:03Z</time>
      </trkpt>
      <trkpt lat="46.36029" lon="2.5668">
        <ele>231</ele>
        <time>2016-10-04T02:18:03Z</time>
      </trkpt>
      <trkpt lat="46.3601" lon="2.56766">
        <ele>229</ele>
        <time>2016-10-04T02:20:03Z</time>
      </trkpt>
      <trkpt lat="46.35951" lon="2.56947">
        <ele>229</ele>
        <time>2016-10-04T02:22:03Z</time>
      </trkpt>
      <trkpt lat="46.35919" lon="2.56981">
        <ele>228</ele>
        <time>2016-10-04T02:24:03Z</time>
      </trkpt>
      <trkpt lat="46.35939" lon="2.57071">
        <ele>228</ele>
        <time>2016-10-04T02:26:03Z</time>
      </trkpt>
      <trkpt lat="46.3594" lon="2.57254">
        <ele>224</ele>
        <time>2016-10-04T02:28:03Z</time>
      </trkpt>
      <trkpt lat="46.36" lon="2.57365">
        <ele>225</ele>
        <time>2016-10-04T02:30:03Z</time>
      </trkpt>
      <trkpt lat="46.36113" lon="2.57424">
        <ele>230</ele>
        <time>2016-10-04T02:32:03Z</time>
      </trkpt>
      <trkpt lat="46.36215" lon="2.57445">
        <ele>229</ele>
        <time>2016-10-04T02:34:03Z</time>
      </trkpt>
      <trkpt lat="46.36084" lon="2.57579">
        <ele>226</ele>
        <time>2016-10-04T02:36:03Z</time>
      </trkpt>
      <trkpt lat="46.3595" lon="2.57663">
        <ele>215</ele>
        <time>2016-10-04T02:38:03Z</time>
      </trkpt>
      <trkpt lat="46.35892" lon="2.5769">
        <ele>220</ele>
        <time>2016-10-04T02:40:03Z</time>
      </trkpt>
      <trkpt lat="46.35835" lon="2.57724">
        <ele>227</ele>
        <time>2016-10-04T02:42:03Z</time>
      </trkpt>
      <trkpt lat="46.35895" lon="2.57814">
        <ele>225</ele>
        <time>2016-10-04T02:44:03Z</time>
      </trkpt>
      <trkpt lat="46.35958" lon="2.57942">
        <ele>224</ele>
        <time>2016-10-04T02:46:03Z</time>
      </trkpt>
      <trkpt lat="46.36034" lon="2.58103">
        <ele>219</ele>
        <time>2016-10-04T02:48:03Z</time>
      </trkpt>
      <trkpt lat="46.36064" lon="2.58139">
        <ele>216</ele>
        <time>2016-10-04T02:50:03Z</time>
      </trkpt>
      <trkpt lat="46.36119" lon="2.5813">
        <ele>213</ele>
        <time>2016-10-04T02:52:03Z</time>
      </trkpt>
      <trkpt lat="46.36417" lon="2.57848">
        <ele>227</ele>
        <time>2016-10-04T02:54:03Z</time>
      </trkpt>
      <trkpt lat="46.36505" lon="2.58034">
        <ele>225</ele>
        <time>2016-10-04T02:56:03Z</time>
      </trkpt>
      <trkpt lat="46.36538" lon="2.58061">
        <ele>223</ele>
        <time>2016-10-04T02:58:03Z</time>
      </trkpt>
      <trkpt lat="46.36565" lon="2.58049">
        <ele>221</ele>
        <time>2016-10-04T03:00:03Z</time>
      </trkpt>
    </trkseg>
  </trk>
</gpx>